Airway Heights, Washington
Current Conditions -  °F | °C
As of 7:53 PM on Sunday 23 Nov 2014 (Local Time) from KGEG Reporting Station
Few Clouds Few Clouds  
Wind Chill: 26°   Ceiling: Unl
Heat Index: 35°   Visibility: 10mi
Dew Point: 29°   Wind: 13mph
Humidity: 78%   Direction: 250°WSW
Pressure: 30.06"   Gusts: NA
Location:  47.64°N, 117.59°W
Report Text: KGEG 240353Z 25011KT 10SM FEW040 02/M02 A3006 RMK AO2 SLP196 T00171017
Loading
Personal Weather Stations






























Interactive Weather Map New forecast layout! Learn more

10-Day Weather Forecast

Advertisements
Track Severe Weather on mobile